sensor_id;sensor_type;location;lat;lon;timestamp;P1;durP1;ratioP1;P2;durP2;ratioP2
11988;SDS011;6054;50.966;7.094;2024-03-02T00:01:49;1.02;;;1.00;;
11988;SDS011;6054;50.966;7.094;2024-03-02T00:04:16;1.17;;;1.00;;
11988;SDS011;6054;50.966;7.094;2024-03-02T00:06:43;1.50;;;1.40;;
11988;SDS011;6054;50.966;7.094;2024-03-02T00:09:11;1.10;;;1.00;;
11988;SDS011;6054;50.966;7.094;2024-03-02T00:11:38;1.20;;;1.10;;
11988;SDS011;6054;50.966;7.094;2024-03-02T00:14:05;1.83;;;1.20;;
11988;SDS011;6054;50.966;7.094;2024-03-02T00:16:32;2.65;;;0.90;;
11988;SDS011;6054;50.966;7.094;2024-03-02T00:19:02;2.25;;;1.30;;
11988;SDS011;6054;50.966;7.094;2024-03-02T00:21:39;1.30;;;1.20;;
11988;SDS011;6054;50.966;7.094;2024-03-02T00:24:07;1.27;;;1.00;;
11988;SDS011;6054;50.966;7.094;2024-03-02T00:26:46;1.50;;;1.02;;
11988;SDS011;6054;50.966;7.094;2024-03-02T00:29:14;1.08;;;0.93;;
11988;SDS011;6054;50.966;7.094;2024-03-02T00:31:44;1.13;;;0.90;;
11988;SDS011;6054;50.966;7.094;2024-03-02T00:34:13;1.05;;;1.00;;
11988;SDS011;6054;50.966;7.094;2024-03-02T00:36:41;1.02;;;0.90;;
11988;SDS011;6054;50.966;7.094;2024-03-02T00:39:08;0.68;;;0.68;;
11988;SDS011;6054;50.966;7.094;2024-03-02T00:41:40;2.38;;;0.90;;
11988;SDS011;6054;50.966;7.094;2024-03-02T00:44:09;0.98;;;0.88;;
11988;SDS011;6054;50.966;7.094;2024-03-02T00:46:38;0.90;;;0.90;;
11988;SDS011;6054;50.966;7.094;2024-03-02T00:49:10;1.40;;;1.10;;
11988;SDS011;6054;50.966;7.094;2024-03-02T00:51:45;1.00;;;0.88;;
11988;SDS011;6054;50.966;7.094;2024-03-02T00:54:19;1.10;;;1.00;;
11988;SDS011;6054;50.966;7.094;2024-03-02T00:56:53;1.83;;;1.00;;
11988;SDS011;6054;50.966;7.094;2024-03-02T00:59:21;1.10;;;1.00;;
11988;SDS011;6054;50.966;7.094;2024-03-02T01:01:53;1.58;;;1.08;;
11988;SDS011;6054;50.966;7.094;2024-03-02T01:04:20;1.45;;;1.00;;
11988;SDS011;6054;50.966;7.094;2024-03-02T01:06:48;0.80;;;0.80;;
11988;SDS011;6054;50.966;7.094;2024-03-02T01:09:15;1.00;;;0.90;;
11988;SDS011;6054;50.966;7.094;2024-03-02T01:11:42;1.15;;;1.15;;
11988;SDS011;6054;50.966;7.094;2024-03-02T01:14:11;2.22;;;1.00;;
11988;SDS011;6054;50.966;7.094;2024-03-02T01:16:38;0.85;;;0.80;;
11988;SDS011;6054;50.966;7.094;2024-03-02T01:19:05;1.10;;;1.00;;
11988;SDS011;6054;50.966;7.094;2024-03-02T01:21:34;1.40;;;0.98;;
11988;SDS011;6054;50.966;7.094;2024-03-02T01:24:01;2.38;;;0.80;;
11988;SDS011;6054;50.966;7.094;2024-03-02T01:26:29;0.85;;;0.82;;
11988;SDS011;6054;50.966;7.094;2024-03-02T01:28:56;1.25;;;1.00;;
11988;SDS011;6054;50.966;7.094;2024-03-02T01:31:25;1.08;;;0.90;;
11988;SDS011;6054;50.966;7.094;2024-03-02T01:33:52;0.95;;;0.90;;
11988;SDS011;6054;50.966;7.094;2024-03-02T01:36:19;2.08;;;1.55;;
11988;SDS011;6054;50.966;7.094;2024-03-02T01:38:45;1.27;;;0.80;;
11988;SDS011;6054;50.966;7.094;2024-03-02T01:41:12;1.05;;;0.80;;
11988;SDS011;6054;50.966;7.094;2024-03-02T01:43:39;0.70;;;0.70;;
11988;SDS011;6054;50.966;7.094;2024-03-02T01:46:06;0.80;;;0.80;;
11988;SDS011;6054;50.966;7.094;2024-03-02T01:48:36;2.53;;;0.75;;
11988;SDS011;6054;50.966;7.094;2024-03-02T01:51:03;3.85;;;1.00;;
11988;SDS011;6054;50.966;7.094;2024-03-02T01:53:31;0.85;;;0.80;;
11988;SDS011;6054;50.966;7.094;2024-03-02T01:55:58;0.70;;;0.70;;
11988;SDS011;6054;50.966;7.094;2024-03-02T01:58:26;2.75;;;0.80;;
11988;SDS011;6054;50.966;7.094;2024-03-02T02:00:54;0.70;;;0.70;;
11988;SDS011;6054;50.966;7.094;2024-03-02T02:03:21;0.82;;;0.80;;
11988;SDS011;6054;50.966;7.094;2024-03-02T02:05:49;0.80;;;0.80;;
11988;SDS011;6054;50.966;7.094;2024-03-02T02:08:18;1.85;;;0.90;;
11988;SDS011;6054;50.966;7.094;2024-03-02T02:10:54;1.52;;;0.73;;
11988;SDS011;6054;50.966;7.094;2024-03-02T02:13:21;0.77;;;0.77;;
11988;SDS011;6054;50.966;7.094;2024-03-02T02:15:48;1.27;;;0.95;;
11988;SDS011;6054;50.966;7.094;2024-03-02T02:18:18;2.33;;;1.02;;
11988;SDS011;6054;50.966;7.094;2024-03-02T02:20:45;0.70;;;0.70;;
11988;SDS011;6054;50.966;7.094;2024-03-02T02:23:13;1.23;;;1.13;;
11988;SDS011;6054;50.966;7.094;2024-03-02T02:25:40;0.80;;;0.80;;
11988;SDS011;6054;50.966;7.094;2024-03-02T02:28:07;0.90;;;0.85;;
11988;SDS011;6054;50.966;7.094;2024-03-02T02:30:35;1.67;;;0.85;;
11988;SDS011;6054;50.966;7.094;2024-03-02T02:33:02;2.50;;;0.80;;
11988;SDS011;6054;50.966;7.094;2024-03-02T02:35:30;2.38;;;0.90;;
11988;SDS011;6054;50.966;7.094;2024-03-02T02:37:56;2.22;;;1.10;;
11988;SDS011;6054;50.966;7.094;2024-03-02T02:40:26;1.80;;;0.80;;
11988;SDS011;6054;50.966;7.094;2024-03-02T02:42:54;2.40;;;1.02;;
11988;SDS011;6054;50.966;7.094;2024-03-02T02:45:21;0.95;;;0.95;;
11988;SDS011;6054;50.966;7.094;2024-03-02T02:47:48;0.80;;;0.80;;
11988;SDS011;6054;50.966;7.094;2024-03-02T02:50:15;0.88;;;0.88;;
11988;SDS011;6054;50.966;7.094;2024-03-02T02:52:43;0.80;;;0.80;;
11988;SDS011;6054;50.966;7.094;2024-03-02T02:55:11;1.02;;;1.02;;
11988;SDS011;6054;50.966;7.094;2024-03-02T02:57:41;0.90;;;0.90;;
11988;SDS011;6054;50.966;7.094;2024-03-02T03:00:09;0.70;;;0.70;;
11988;SDS011;6054;50.966;7.094;2024-03-02T03:02:39;1.80;;;0.98;;
11988;SDS011;6054;50.966;7.094;2024-03-02T03:05:07;0.82;;;0.82;;
11988;SDS011;6054;50.966;7.094;2024-03-02T03:07:35;1.10;;;1.05;;
11988;SDS011;6054;50.966;7.094;2024-03-02T03:10:05;0.80;;;0.80;;
11988;SDS011;6054;50.966;7.094;2024-03-02T03:12:32;0.82;;;0.80;;
11988;SDS011;6054;50.966;7.094;2024-03-02T03:15:01;0.88;;;0.88;;
11988;SDS011;6054;50.966;7.094;2024-03-02T03:17:29;0.80;;;0.80;;
11988;SDS011;6054;50.966;7.094;2024-03-02T03:19:56;1.23;;;0.90;;
11988;SDS011;6054;50.966;7.094;2024-03-02T03:22:23;0.95;;;0.93;;
11988;SDS011;6054;50.966;7.094;2024-03-02T03:24:50;1.30;;;0.80;;
11988;SDS011;6054;50.966;7.094;2024-03-02T03:27:17;1.23;;;1.00;;
11988;SDS011;6054;50.966;7.094;2024-03-02T03:29:47;1.35;;;0.73;;
11988;SDS011;6054;50.966;7.094;2024-03-02T03:32:15;1.77;;;0.90;;
11988;SDS011;6054;50.966;7.094;2024-03-02T03:34:42;1.17;;;0.80;;
11988;SDS011;6054;50.966;7.094;2024-03-02T03:37:09;2.40;;;0.88;;
11988;SDS011;6054;50.966;7.094;2024-03-02T03:39:39;1.10;;;1.00;;
11988;SDS011;6054;50.966;7.094;2024-03-02T03:42:06;1.50;;;1.00;;
11988;SDS011;6054;50.966;7.094;2024-03-02T03:44:33;1.05;;;0.90;;
11988;SDS011;6054;50.966;7.094;2024-03-02T03:47:03;2.58;;;1.10;;
11988;SDS011;6054;50.966;7.094;2024-03-02T03:49:38;2.22;;;1.00;;
11988;SDS011;6054;50.966;7.094;2024-03-02T03:52:07;0.80;;;0.80;;
11988;SDS011;6054;50.966;7.094;2024-03-02T03:54:34;1.33;;;1.08;;
11988;SDS011;6054;50.966;7.094;2024-03-02T03:57:02;0.80;;;0.80;;
11988;SDS011;6054;50.966;7.094;2024-03-02T03:59:29;1.05;;;0.90;;
11988;SDS011;6054;50.966;7.094;2024-03-02T04:01:56;2.75;;;1.10;;
11988;SDS011;6054;50.966;7.094;2024-03-02T04:04:23;2.67;;;1.10;;
11988;SDS011;6054;50.966;7.094;2024-03-02T04:06:51;0.82;;;0.80;;
11988;SDS011;6054;50.966;7.094;2024-03-02T04:09:19;4.03;;;0.90;;
11988;SDS011;6054;50.966;7.094;2024-03-02T04:11:46;1.05;;;0.90;;
11988;SDS011;6054;50.966;7.094;2024-03-02T04:14:13;1.35;;;0.98;;
11988;SDS011;6054;50.966;7.094;2024-03-02T04:16:39;2.67;;;1.20;;
11988;SDS011;6054;50.966;7.094;2024-03-02T04:19:06;1.58;;;1.02;;
11988;SDS011;6054;50.966;7.094;2024-03-02T04:21:33;1.20;;;1.00;;
11988;SDS011;6054;50.966;7.094;2024-03-02T04:24:01;1.95;;;1.30;;
11988;SDS011;6054;50.966;7.094;2024-03-02T04:26:28;2.28;;;1.38;;
11988;SDS011;6054;50.966;7.094;2024-03-02T04:28:55;2.90;;;0.95;;
11988;SDS011;6054;50.966;7.094;2024-03-02T04:31:22;1.10;;;1.00;;
11988;SDS011;6054;50.966;7.094;2024-03-02T04:33:50;1.00;;;1.00;;
11988;SDS011;6054;50.966;7.094;2024-03-02T04:36:17;2.45;;;1.30;;
11988;SDS011;6054;50.966;7.094;2024-03-02T04:38:43;1.83;;;1.20;;
11988;SDS011;6054;50.966;7.094;2024-03-02T04:41:12;1.60;;;1.13;;
11988;SDS011;6054;50.966;7.094;2024-03-02T04:43:39;3.13;;;1.27;;
11988;SDS011;6054;50.966;7.094;2024-03-02T04:46:14;1.85;;;1.10;;
11988;SDS011;6054;50.966;7.094;2024-03-02T04:48:41;1.08;;;1.08;;
11988;SDS011;6054;50.966;7.094;2024-03-02T04:51:08;1.20;;;1.20;;
11988;SDS011;6054;50.966;7.094;2024-03-02T04:53:35;1.48;;;1.10;;
11988;SDS011;6054;50.966;7.094;2024-03-02T04:56:01;1.60;;;1.10;;
11988;SDS011;6054;50.966;7.094;2024-03-02T04:59:05;1.92;;;1.27;;
11988;SDS011;6054;50.966;7.094;2024-03-02T05:01:32;1.85;;;1.15;;
11988;SDS011;6054;50.966;7.094;2024-03-02T05:03:59;1.60;;;1.17;;
11988;SDS011;6054;50.966;7.094;2024-03-02T05:06:26;1.20;;;1.10;;
11988;SDS011;6054;50.966;7.094;2024-03-02T05:08:53;1.70;;;1.20;;
11988;SDS011;6054;50.966;7.094;2024-03-02T05:11:20;2.38;;;1.38;;
11988;SDS011;6054;50.966;7.094;2024-03-02T05:14:19;1.50;;;1.05;;
11988;SDS011;6054;50.966;7.094;2024-03-02T05:16:46;2.22;;;1.38;;
11988;SDS011;6054;50.966;7.094;2024-03-02T05:19:13;1.40;;;1.27;;
11988;SDS011;6054;50.966;7.094;2024-03-02T05:21:40;1.80;;;1.33;;
11988;SDS011;6054;50.966;7.094;2024-03-02T05:24:07;1.52;;;1.33;;
11988;SDS011;6054;50.966;7.094;2024-03-02T05:26:34;1.73;;;1.15;;
11988;SDS011;6054;50.966;7.094;2024-03-02T05:29:01;1.20;;;1.17;;
11988;SDS011;6054;50.966;7.094;2024-03-02T05:31:29;1.45;;;1.35;;
11988;SDS011;6054;50.966;7.094;2024-03-02T05:33:56;2.78;;;1.40;;
11988;SDS011;6054;50.966;7.094;2024-03-02T05:36:23;1.45;;;1.00;;
11988;SDS011;6054;50.966;7.094;2024-03-02T05:38:49;2.90;;;1.38;;
11988;SDS011;6054;50.966;7.094;2024-03-02T05:41:16;2.88;;;1.40;;
11988;SDS011;6054;50.966;7.094;2024-03-02T05:43:44;1.40;;;1.30;;
11988;SDS011;6054;50.966;7.094;2024-03-02T05:46:10;1.90;;;1.60;;
11988;SDS011;6054;50.966;7.094;2024-03-02T05:48:40;2.55;;;1.65;;
11988;SDS011;6054;50.966;7.094;2024-03-02T05:51:09;2.28;;;1.40;;
11988;SDS011;6054;50.966;7.094;2024-03-02T05:53:36;1.48;;;1.38;;
11988;SDS011;6054;50.966;7.094;2024-03-02T05:56:04;1.50;;;1.40;;
11988;SDS011;6054;50.966;7.094;2024-03-02T05:58:32;1.40;;;1.30;;
11988;SDS011;6054;50.966;7.094;2024-03-02T06:01:11;1.73;;;1.50;;
11988;SDS011;6054;50.966;7.094;2024-03-02T06:03:39;1.70;;;1.33;;
11988;SDS011;6054;50.966;7.094;2024-03-02T06:06:06;1.30;;;1.20;;
11988;SDS011;6054;50.966;7.094;2024-03-02T06:08:33;1.50;;;1.40;;
11988;SDS011;6054;50.966;7.094;2024-03-02T06:11:01;2.65;;;1.42;;
11988;SDS011;6054;50.966;7.094;2024-03-02T06:13:28;3.13;;;1.60;;
11988;SDS011;6054;50.966;7.094;2024-03-02T06:15:55;2.78;;;1.23;;
11988;SDS011;6054;50.966;7.094;2024-03-02T06:18:22;1.98;;;1.70;;
11988;SDS011;6054;50.966;7.094;2024-03-02T06:20:50;1.92;;;1.35;;
11988;SDS011;6054;50.966;7.094;2024-03-02T06:23:17;1.98;;;1.45;;
11988;SDS011;6054;50.966;7.094;2024-03-02T06:25:44;1.83;;;1.70;;
11988;SDS011;6054;50.966;7.094;2024-03-02T06:28:11;2.05;;;1.65;;
11988;SDS011;6054;50.966;7.094;2024-03-02T06:30:40;2.33;;;1.95;;
11988;SDS011;6054;50.966;7.094;2024-03-02T06:33:08;2.25;;;1.40;;
11988;SDS011;6054;50.966;7.094;2024-03-02T06:35:35;3.40;;;1.58;;
11988;SDS011;6054;50.966;7.094;2024-03-02T06:38:07;2.17;;;1.42;;
11988;SDS011;6054;50.966;7.094;2024-03-02T06:40:35;1.60;;;1.40;;
11988;SDS011;6054;50.966;7.094;2024-03-02T06:43:03;2.75;;;1.67;;
11988;SDS011;6054;50.966;7.094;2024-03-02T06:45:30;2.10;;;1.73;;
11988;SDS011;6054;50.966;7.094;2024-03-02T06:47:59;2.65;;;1.45;;
11988;SDS011;6054;50.966;7.094;2024-03-02T06:50:27;3.40;;;1.70;;
11988;SDS011;6054;50.966;7.094;2024-03-02T06:52:54;1.75;;;1.65;;
11988;SDS011;6054;50.966;7.094;2024-03-02T06:55:24;1.88;;;1.65;;
11988;SDS011;6054;50.966;7.094;2024-03-02T06:57:51;2.30;;;1.75;;
11988;SDS011;6054;50.966;7.094;2024-03-02T07:00:18;1.77;;;1.67;;
11988;SDS011;6054;50.966;7.094;2024-03-02T07:02:55;2.88;;;1.60;;
11988;SDS011;6054;50.966;7.094;2024-03-02T07:05:22;2.00;;;1.58;;
11988;SDS011;6054;50.966;7.094;2024-03-02T07:07:52;2.35;;;1.70;;
11988;SDS011;6054;50.966;7.094;2024-03-02T07:10:19;1.80;;;1.52;;
11988;SDS011;6054;50.966;7.094;2024-03-02T07:12:48;2.22;;;1.70;;
11988;SDS011;6054;50.966;7.094;2024-03-02T07:15:15;1.98;;;1.50;;
11988;SDS011;6054;50.966;7.094;2024-03-02T07:18:02;3.83;;;1.70;;
11988;SDS011;6054;50.966;7.094;2024-03-02T07:20:29;1.67;;;1.58;;
11988;SDS011;6054;50.966;7.094;2024-03-02T07:22:56;1.67;;;1.50;;
11988;SDS011;6054;50.966;7.094;2024-03-02T07:25:26;1.70;;;1.60;;
11988;SDS011;6054;50.966;7.094;2024-03-02T07:27:58;2.50;;;1.65;;
11988;SDS011;6054;50.966;7.094;2024-03-02T07:30:25;2.47;;;1.70;;
11988;SDS011;6054;50.966;7.094;2024-03-02T07:32:52;2.03;;;1.38;;
11988;SDS011;6054;50.966;7.094;2024-03-02T07:35:19;1.92;;;1.50;;
11988;SDS011;6054;50.966;7.094;2024-03-02T07:37:47;2.35;;;1.77;;
11988;SDS011;6054;50.966;7.094;2024-03-02T07:40:14;2.22;;;1.70;;
11988;SDS011;6054;50.966;7.094;2024-03-02T07:42:44;5.10;;;1.55;;
11988;SDS011;6054;50.966;7.094;2024-03-02T07:45:13;2.00;;;1.77;;
11988;SDS011;6054;50.966;7.094;2024-03-02T07:47:41;3.83;;;1.60;;
11988;SDS011;6054;50.966;7.094;2024-03-02T07:50:09;2.17;;;1.60;;
11988;SDS011;6054;50.966;7.094;2024-03-02T07:52:41;3.67;;;1.60;;
11988;SDS011;6054;50.966;7.094;2024-03-02T07:55:08;1.88;;;1.40;;
11988;SDS011;6054;50.966;7.094;2024-03-02T07:57:38;1.98;;;1.38;;
11988;SDS011;6054;50.966;7.094;2024-03-02T08:00:06;2.40;;;1.48;;
11988;SDS011;6054;50.966;7.094;2024-03-02T08:02:39;1.50;;;1.40;;
11988;SDS011;6054;50.966;7.094;2024-03-02T08:05:07;2.03;;;1.45;;
11988;SDS011;6054;50.966;7.094;2024-03-02T08:07:34;2.40;;;1.50;;
11988;SDS011;6054;50.966;7.094;2024-03-02T08:10:02;1.67;;;1.58;;
11988;SDS011;6054;50.966;7.094;2024-03-02T08:12:29;1.98;;;1.50;;
11988;SDS011;6054;50.966;7.094;2024-03-02T08:14:56;4.88;;;1.70;;
11988;SDS011;6054;50.966;7.094;2024-03-02T08:17:25;2.65;;;1.67;;
11988;SDS011;6054;50.966;7.094;2024-03-02T08:19:55;3.63;;;1.65;;
11988;SDS011;6054;50.966;7.094;2024-03-02T08:22:22;2.30;;;1.40;;
11988;SDS011;6054;50.966;7.094;2024-03-02T08:24:50;1.38;;;1.20;;
11988;SDS011;6054;50.966;7.094;2024-03-02T08:27:22;1.58;;;1.42;;
11988;SDS011;6054;50.966;7.094;2024-03-02T08:29:50;1.40;;;1.30;;
11988;SDS011;6054;50.966;7.094;2024-03-02T08:32:19;3.75;;;1.65;;
11988;SDS011;6054;50.966;7.094;2024-03-02T08:34:47;4.45;;;1.70;;
11988;SDS011;6054;50.966;7.094;2024-03-02T08:37:22;1.30;;;1.20;;
11988;SDS011;6054;50.966;7.094;2024-03-02T08:39:49;3.63;;;1.70;;
11988;SDS011;6054;50.966;7.094;2024-03-02T08:42:16;3.00;;;1.30;;
11988;SDS011;6054;50.966;7.094;2024-03-02T08:44:45;1.98;;;1.38;;
11988;SDS011;6054;50.966;7.094;2024-03-02T08:47:13;3.95;;;1.23;;
11988;SDS011;6054;50.966;7.094;2024-03-02T08:49:41;2.17;;;1.30;;
11988;SDS011;6054;50.966;7.094;2024-03-02T08:52:09;1.23;;;1.10;;
11988;SDS011;6054;50.966;7.094;2024-03-02T08:54:38;2.83;;;1.20;;
11988;SDS011;6054;50.966;7.094;2024-03-02T08:57:05;1.38;;;1.15;;
11988;SDS011;6054;50.966;7.094;2024-03-02T08:59:34;2.03;;;1.30;;
11988;SDS011;6054;50.966;7.094;2024-03-02T09:02:02;1.77;;;1.20;;
11988;SDS011;6054;50.966;7.094;2024-03-02T09:04:31;3.72;;;1.30;;
11988;SDS011;6054;50.966;7.094;2024-03-02T09:07:03;1.20;;;1.10;;
11988;SDS011;6054;50.966;7.094;2024-03-02T09:09:34;1.20;;;1.10;;
11988;SDS011;6054;50.966;7.094;2024-03-02T09:12:07;3.72;;;1.50;;
11988;SDS011;6054;50.966;7.094;2024-03-02T09:14:37;1.85;;;1.42;;
11988;SDS011;6054;50.966;7.094;2024-03-02T09:17:09;2.15;;;1.13;;
11988;SDS011;6054;50.966;7.094;2024-03-02T09:19:38;1.73;;;1.38;;
11988;SDS011;6054;50.966;7.094;2024-03-02T09:22:10;2.10;;;1.60;;
11988;SDS011;6054;50.966;7.094;2024-03-02T09:24:38;1.77;;;1.20;;
11988;SDS011;6054;50.966;7.094;2024-03-02T09:27:07;1.98;;;1.30;;
11988;SDS011;6054;50.966;7.094;2024-03-02T09:29:37;2.15;;;1.27;;
11988;SDS011;6054;50.966;7.094;2024-03-02T09:32:06;2.70;;;1.20;;
11988;SDS011;6054;50.966;7.094;2024-03-02T09:34:44;1.48;;;1.20;;
11988;SDS011;6054;50.966;7.094;2024-03-02T09:37:15;1.95;;;1.00;;
11988;SDS011;6054;50.966;7.094;2024-03-02T09:39:43;1.83;;;1.50;;
11988;SDS011;6054;50.966;7.094;2024-03-02T09:42:15;1.38;;;1.00;;
11988;SDS011;6054;50.966;7.094;2024-03-02T09:44:44;1.83;;;1.30;;
11988;SDS011;6054;50.966;7.094;2024-03-02T09:47:13;1.42;;;1.13;;
11988;SDS011;6054;50.966;7.094;2024-03-02T09:49:51;1.27;;;1.10;;
11988;SDS011;6054;50.966;7.094;2024-03-02T09:52:21;1.23;;;1.20;;
11988;SDS011;6054;50.966;7.094;2024-03-02T09:54:48;1.58;;;1.05;;
11988;SDS011;6054;50.966;7.094;2024-03-02T09:57:17;1.45;;;1.30;;
11988;SDS011;6054;50.966;7.094;2024-03-02T09:59:44;1.42;;;1.13;;
11988;SDS011;6054;50.966;7.094;2024-03-02T10:02:12;1.42;;;1.20;;
11988;SDS011;6054;50.966;7.094;2024-03-02T10:04:39;3.53;;;1.20;;
11988;SDS011;6054;50.966;7.094;2024-03-02T10:07:11;1.27;;;1.17;;
11988;SDS011;6054;50.966;7.094;2024-03-02T10:09:39;1.58;;;1.10;;
11988;SDS011;6054;50.966;7.094;2024-03-02T10:12:09;1.20;;;1.10;;
11988;SDS011;6054;50.966;7.094;2024-03-02T10:14:42;1.17;;;1.08;;
11988;SDS011;6054;50.966;7.094;2024-03-02T10:17:13;0.95;;;0.90;;
11988;SDS011;6054;50.966;7.094;2024-03-02T10:19:54;3.05;;;1.13;;
11988;SDS011;6054;50.966;7.094;2024-03-02T10:22:23;2.38;;;1.15;;
11988;SDS011;6054;50.966;7.094;2024-03-02T10:24:51;2.22;;;1.20;;
11988;SDS011;6054;50.966;7.094;2024-03-02T10:27:35;3.13;;;1.40;;
11988;SDS011;6054;50.966;7.094;2024-03-02T10:30:07;2.15;;;1.20;;
11988;SDS011;6054;50.966;7.094;2024-03-02T10:32:43;0.90;;;0.90;;
11988;SDS011;6054;50.966;7.094;2024-03-02T10:35:10;2.28;;;1.10;;
11988;SDS011;6054;50.966;7.094;2024-03-02T10:37:39;1.05;;;0.90;;
11988;SDS011;6054;50.966;7.094;2024-03-02T10:40:06;1.20;;;1.10;;
11988;SDS011;6054;50.966;7.094;2024-03-02T10:42:38;1.67;;;1.50;;
11988;SDS011;6054;50.966;7.094;2024-03-02T10:45:09;1.55;;;1.20;;
11988;SDS011;6054;50.966;7.094;2024-03-02T10:47:38;2.92;;;1.10;;
11988;SDS011;6054;50.966;7.094;2024-03-02T10:50:05;1.08;;;0.90;;
11988;SDS011;6054;50.966;7.094;2024-03-02T10:52:35;2.15;;;1.27;;
11988;SDS011;6054;50.966;7.094;2024-03-02T10:55:02;1.77;;;0.90;;
11988;SDS011;6054;50.966;7.094;2024-03-02T10:57:45;2.42;;;1.45;;
11988;SDS011;6054;50.966;7.094;2024-03-02T11:00:20;1.02;;;1.02;;
11988;SDS011;6054;50.966;7.094;2024-03-02T11:02:55;1.70;;;1.10;;
11988;SDS011;6054;50.966;7.094;2024-03-02T11:05:36;3.35;;;1.13;;
11988;SDS011;6054;50.966;7.094;2024-03-02T11:08:19;1.13;;;0.90;;
11988;SDS011;6054;50.966;7.094;2024-03-02T11:10:52;1.30;;;0.90;;
11988;SDS011;6054;50.966;7.094;2024-03-02T11:13:31;2.17;;;1.02;;
11988;SDS011;6054;50.966;7.094;2024-03-02T11:16:05;1.30;;;1.20;;
11988;SDS011;6054;50.966;7.094;2024-03-02T11:18:50;2.45;;;0.95;;
11988;SDS011;6054;50.966;7.094;2024-03-02T11:21:17;1.20;;;1.10;;
11988;SDS011;6054;50.966;7.094;2024-03-02T11:23:44;1.95;;;1.00;;
11988;SDS011;6054;50.966;7.094;2024-03-02T11:26:17;1.95;;;1.00;;
11988;SDS011;6054;50.966;7.094;2024-03-02T11:28:50;3.10;;;1.00;;
11988;SDS011;6054;50.966;7.094;2024-03-02T11:31:22;0.95;;;0.90;;
11988;SDS011;6054;50.966;7.094;2024-03-02T11:34:28;1.20;;;1.10;;
11988;SDS011;6054;50.966;7.094;2024-03-02T11:36:56;0.75;;;0.70;;
11988;SDS011;6054;50.966;7.094;2024-03-02T11:39:26;1.52;;;0.95;;
11988;SDS011;6054;50.966;7.094;2024-03-02T11:41:57;1.70;;;0.80;;
11988;SDS011;6054;50.966;7.094;2024-03-02T11:44:25;1.83;;;1.10;;
11988;SDS011;6054;50.966;7.094;2024-03-02T11:46:54;1.10;;;1.00;;
11988;SDS011;6054;50.966;7.094;2024-03-02T11:49:37;0.70;;;0.70;;
11988;SDS011;6054;50.966;7.094;2024-03-02T11:52:15;0.77;;;0.75;;
11988;SDS011;6054;50.966;7.094;2024-03-02T11:54:43;1.70;;;0.70;;
11988;SDS011;6054;50.966;7.094;2024-03-02T11:57:16;0.98;;;0.90;;
11988;SDS011;6054;50.966;7.094;2024-03-02T11:59:49;0.88;;;0.80;;
11988;SDS011;6054;50.966;7.094;2024-03-02T12:02:25;0.93;;;0.90;;
11988;SDS011;6054;50.966;7.094;2024-03-02T12:04:52;0.98;;;0.95;;
11988;SDS011;6054;50.966;7.094;2024-03-02T12:07:22;1.15;;;1.00;;
11988;SDS011;6054;50.966;7.094;2024-03-02T12:09:59;0.80;;;0.80;;
11988;SDS011;6054;50.966;7.094;2024-03-02T12:12:32;0.93;;;0.70;;
11988;SDS011;6054;50.966;7.094;2024-03-02T12:15:05;1.95;;;0.93;;
11988;SDS011;6054;50.966;7.094;2024-03-02T12:17:58;1.17;;;0.95;;
11988;SDS011;6054;50.966;7.094;2024-03-02T12:20:28;0.85;;;0.82;;
11988;SDS011;6054;50.966;7.094;2024-03-02T12:22:57;1.27;;;1.10;;
11988;SDS011;6054;50.966;7.094;2024-03-02T12:25:29;1.58;;;0.90;;
11988;SDS011;6054;50.966;7.094;2024-03-02T12:28:06;1.15;;;1.08;;
11988;SDS011;6054;50.966;7.094;2024-03-02T12:30:37;0.80;;;0.80;;
11988;SDS011;6054;50.966;7.094;2024-03-02T12:33:16;0.80;;;0.80;;
11988;SDS011;6054;50.966;7.094;2024-03-02T12:35:43;1.20;;;0.90;;
11988;SDS011;6054;50.966;7.094;2024-03-02T12:38:13;1.75;;;1.02;;
11988;SDS011;6054;50.966;7.094;2024-03-02T12:40:47;1.20;;;0.60;;
11988;SDS011;6054;50.966;7.094;2024-03-02T12:43:19;1.75;;;0.90;;
11988;SDS011;6054;50.966;7.094;2024-03-02T12:45:49;0.50;;;0.50;;
11988;SDS011;6054;50.966;7.094;2024-03-02T12:48:18;0.95;;;0.73;;
11988;SDS011;6054;50.966;7.094;2024-03-02T12:50:53;0.75;;;0.75;;
11988;SDS011;6054;50.966;7.094;2024-03-02T12:53:23;0.82;;;0.80;;
11988;SDS011;6054;50.966;7.094;2024-03-02T12:55:54;0.73;;;0.73;;
11988;SDS011;6054;50.966;7.094;2024-03-02T12:58:22;0.70;;;0.70;;
11988;SDS011;6054;50.966;7.094;2024-03-02T13:00:51;3.28;;;0.60;;
11988;SDS011;6054;50.966;7.094;2024-03-02T13:03:36;0.68;;;0.63;;
11988;SDS011;6054;50.966;7.094;2024-03-02T13:06:04;0.70;;;0.70;;
11988;SDS011;6054;50.966;7.094;2024-03-02T13:08:38;1.10;;;1.10;;
11988;SDS011;6054;50.966;7.094;2024-03-02T13:11:05;2.60;;;0.80;;
11988;SDS011;6054;50.966;7.094;2024-03-02T13:13:32;0.85;;;0.85;;
11988;SDS011;6054;50.966;7.094;2024-03-02T13:16:13;1.55;;;0.70;;
11988;SDS011;6054;50.966;7.094;2024-03-02T13:18:44;1.00;;;0.70;;
11988;SDS011;6054;50.966;7.094;2024-03-02T13:21:12;0.63;;;0.63;;
11988;SDS011;6054;50.966;7.094;2024-03-02T13:23:38;0.82;;;0.82;;
11988;SDS011;6054;50.966;7.094;2024-03-02T13:26:08;0.95;;;0.93;;
11988;SDS011;6054;50.966;7.094;2024-03-02T13:28:44;1.42;;;1.10;;
11988;SDS011;6054;50.966;7.094;2024-03-02T13:31:22;1.08;;;0.90;;
11988;SDS011;6054;50.966;7.094;2024-03-02T13:33:50;1.85;;;0.88;;
11988;SDS011;6054;50.966;7.094;2024-03-02T13:36:22;2.50;;;0.85;;
11988;SDS011;6054;50.966;7.094;2024-03-02T13:38:49;10.00;;;2.45;;
11988;SDS011;6054;50.966;7.094;2024-03-02T13:41:17;0.80;;;0.80;;
11988;SDS011;6054;50.966;7.094;2024-03-02T13:43:47;0.70;;;0.70;;
11988;SDS011;6054;50.966;7.094;2024-03-02T13:46:16;1.13;;;0.80;;
11988;SDS011;6054;50.966;7.094;2024-03-02T13:48:44;1.10;;;1.00;;
11988;SDS011;6054;50.966;7.094;2024-03-02T13:51:15;1.52;;;0.68;;
11988;SDS011;6054;50.966;7.094;2024-03-02T13:53:43;0.70;;;0.70;;
11988;SDS011;6054;50.966;7.094;2024-03-02T13:56:10;1.13;;;0.80;;
11988;SDS011;6054;50.966;7.094;2024-03-02T13:58:41;1.13;;;0.70;;
11988;SDS011;6054;50.966;7.094;2024-03-02T14:01:08;0.70;;;0.70;;
11988;SDS011;6054;50.966;7.094;2024-03-02T14:03:35;1.55;;;0.80;;
11988;SDS011;6054;50.966;7.094;2024-03-02T14:06:04;1.10;;;0.90;;
11988;SDS011;6054;50.966;7.094;2024-03-02T14:08:38;1.88;;;1.05;;
11988;SDS011;6054;50.966;7.094;2024-03-02T14:11:08;1.20;;;1.00;;
11988;SDS011;6054;50.966;7.094;2024-03-02T14:13:41;2.22;;;1.13;;
11988;SDS011;6054;50.966;7.094;2024-03-02T14:16:11;1.20;;;1.13;;
11988;SDS011;6054;50.966;7.094;2024-03-02T14:18:38;2.80;;;0.82;;
11988;SDS011;6054;50.966;7.094;2024-03-02T14:21:06;0.77;;;0.77;;
11988;SDS011;6054;50.966;7.094;2024-03-02T14:23:33;0.98;;;0.80;;
11988;SDS011;6054;50.966;7.094;2024-03-02T14:26:04;0.77;;;0.77;;
11988;SDS011;6054;50.966;7.094;2024-03-02T14:28:34;0.93;;;0.82;;
11988;SDS011;6054;50.966;7.094;2024-03-02T14:31:02;0.98;;;0.60;;
11988;SDS011;6054;50.966;7.094;2024-03-02T14:33:32;0.80;;;0.80;;
11988;SDS011;6054;50.966;7.094;2024-03-02T14:36:04;0.98;;;0.80;;
11988;SDS011;6054;50.966;7.094;2024-03-02T14:38:34;0.77;;;0.77;;
11988;SDS011;6054;50.966;7.094;2024-03-02T14:41:10;3.60;;;0.88;;
11988;SDS011;6054;50.966;7.094;2024-03-02T14:43:38;1.65;;;1.17;;
11988;SDS011;6054;50.966;7.094;2024-03-02T14:46:11;0.68;;;0.68;;
11988;SDS011;6054;50.966;7.094;2024-03-02T14:48:45;1.45;;;0.60;;
11988;SDS011;6054;50.966;7.094;2024-03-02T14:51:14;0.85;;;0.85;;
11988;SDS011;6054;50.966;7.094;2024-03-02T14:53:47;2.78;;;0.68;;
11988;SDS011;6054;50.966;7.094;2024-03-02T14:56:21;1.10;;;1.00;;
11988;SDS011;6054;50.966;7.094;2024-03-02T14:58:48;0.60;;;0.60;;
11988;SDS011;6054;50.966;7.094;2024-03-02T15:01:16;1.00;;;0.65;;
11988;SDS011;6054;50.966;7.094;2024-03-02T15:03:46;0.60;;;0.60;;
11988;SDS011;6054;50.966;7.094;2024-03-02T15:06:16;0.60;;;0.60;;
11988;SDS011;6054;50.966;7.094;2024-03-02T15:08:43;0.90;;;0.70;;
11988;SDS011;6054;50.966;7.094;2024-03-02T15:11:12;1.48;;;1.00;;
11988;SDS011;6054;50.966;7.094;2024-03-02T15:13:44;1.00;;;0.90;;
11988;SDS011;6054;50.966;7.094;2024-03-02T15:16:11;0.70;;;0.70;;